Time;durP1;ratioP1;P1;durP2;ratioP2;P2;SDS_P1;SDS_P2;PMS_P1;PMS_P2;Temp;Humidity;BMP_temperature;BMP_pressure;BME280_temperature;BME280_humidity;BME280_pressure;Samples;Min_cycle;Max_cycle;Signal;HPM_P1;HPM_P2
2022/10/16 00:01:13;;;;;;;7.32;4.22;;;13.20;99.90;;;;;;5111438;27;20342;-47
2022/10/16 00:03:41;;;;;;;11.93;4.60;;;13.20;99.90;;;;;;5109791;27;20043;-51
2022/10/16 00:06:09;;;;;;;8.50;4.97;;;13.20;99.90;;;;;;5110543;28;20065;-51
2022/10/16 00:08:37;;;;;;;8.95;4.75;;;13.10;99.90;;;;;;5127879;27;20542;-48
2022/10/16 00:11:10;;;;;;;8.50;4.45;;;13.10;99.90;;;;;;5121736;27;20047;-48
2022/10/16 00:13:40;;;;;;;10.13;4.07;;;13.10;99.90;;;;;;5131160;27;20038;-48
2022/10/16 00:16:08;;;;;;;10.07;4.55;;;13.00;99.90;;;;;;5152660;27;20039;-48
2022/10/16 00:18:36;;;;;;;7.82;4.75;;;13.00;99.90;;;;;;5145620;27;20085;-47
2022/10/16 00:21:06;;;;;;;11.63;5.32;;;13.00;99.90;;;;;;5110791;28;20051;-48
2022/10/16 00:23:33;;;;;;;6.30;4.20;;;12.90;99.90;;;;;;5109790;28;20152;-52
2022/10/16 00:26:03;;;;;;;8.80;4.65;;;12.90;99.90;;;;;;5077056;28;20495;-48
2022/10/16 00:28:30;;;;;;;10.23;4.95;;;12.90;99.90;;;;;;5115480;27;20040;-47
2022/10/16 00:30:57;;;;;;;12.88;5.60;;;12.90;99.90;;;;;;5111291;28;20043;-49
2022/10/16 00:33:24;;;;;;;13.32;5.13;;;12.80;99.90;;;;;;5110506;28;20054;-48
2022/10/16 00:35:51;;;;;;;10.32;4.97;;;12.80;99.90;;;;;;5110889;27;20044;-48
2022/10/16 00:38:18;;;;;;;10.45;5.05;;;12.90;99.90;;;;;;5110279;28;20092;-48
2022/10/16 00:40:45;;;;;;;11.07;5.57;;;12.80;99.90;;;;;;5110711;28;20062;-47
2022/10/16 00:43:38;;;;;;;6.90;4.47;;;12.80;99.90;;;;;;5110676;28;20070;-47
2022/10/16 00:46:17;;;;;;;7.88;5.05;;;12.80;99.90;;;;;;5118488;27;20522;-49
2022/10/16 00:49:00;;;;;;;10.85;4.90;;;12.80;99.90;;;;;;5125123;28;20039;-48
2022/10/16 00:51:32;;;;;;;10.93;4.47;;;12.80;99.90;;;;;;5125340;28;20067;-50
2022/10/16 00:54:02;;;;;;;9.43;4.90;;;12.70;99.90;;;;;;5111657;28;20500;-50
2022/10/16 00:56:28;;;;;;;9.63;4.45;;;12.70;99.90;;;;;;5111556;27;20044;-47
2022/10/16 00:58:55;;;;;;;9.32;5.18;;;12.70;99.90;;;;;;5110924;28;20545;-48
2022/10/16 01:01:22;;;;;;;8.73;4.30;;;12.80;99.90;;;;;;5092553;28;20046;-47
2022/10/16 01:03:49;;;;;;;12.85;4.43;;;12.70;99.90;;;;;;5110795;28;20115;-48
2022/10/16 01:06:36;;;;;;;11.52;4.47;;;12.70;99.90;;;;;;5109416;28;20071;-47
2022/10/16 01:09:10;;;;;;;5.55;3.80;;;12.70;99.90;;;;;;5121237;27;20067;-50
2022/10/16 01:11:59;;;;;;;12.30;4.32;;;12.60;99.90;;;;;;5113477;27;20040;-48
2022/10/16 01:14:49;;;;;;;9.18;4.40;;;12.70;99.90;;;;;;5113334;28;20040;-47
2022/10/16 01:17:20;;;;;;;6.47;4.90;;;12.60;99.90;;;;;;5114126;28;20561;-48
2022/10/16 01:20:02;;;;;;;11.48;5.10;;;12.60;99.90;;;;;;5125630;27;20441;-48
2022/10/16 01:23:05;;;;;;;14.25;4.85;;;12.60;99.90;;;;;;5114976;28;20036;-48
2022/10/16 01:26:02;;;;;;;11.38;4.50;;;12.60;99.90;;;;;;5113470;28;20042;-49
2022/10/16 01:28:49;;;;;;;10.10;4.78;;;12.50;99.90;;;;;;5114448;27;20458;-48
2022/10/16 01:31:19;;;;;;;8.90;4.95;;;12.50;99.90;;;;;;5112521;28;20070;-48
2022/10/16 01:33:53;;;;;;;10.57;4.82;;;12.50;99.90;;;;;;5113625;28;20051;-47
2022/10/16 01:36:36;;;;;;;8.10;4.90;;;12.50;99.90;;;;;;5112953;27;20036;-47
2022/10/16 01:39:06;;;;;;;6.88;4.65;;;12.50;99.90;;;;;;5113632;28;20058;-48
2022/10/16 01:41:39;;;;;;;10.77;4.85;;;12.40;99.90;;;;;;5114461;28;20044;-49
2022/10/16 01:44:11;;;;;;;8.02;4.68;;;12.40;99.90;;;;;;5113248;28;20061;-50
2022/10/16 01:46:42;;;;;;;7.47;4.75;;;12.40;99.90;;;;;;5119807;27;20044;-47
2022/10/16 01:49:10;;;;;;;8.05;4.38;;;12.30;99.90;;;;;;5113077;28;20127;-47
2022/10/16 01:51:37;;;;;;;4.88;3.58;;;12.30;99.90;;;;;;5115717;27;20075;-49
2022/10/16 01:54:07;;;;;;;6.65;3.70;;;12.30;99.90;;;;;;5112856;28;20048;-48
2022/10/16 01:56:36;;;;;;;9.25;3.25;;;12.20;99.90;;;;;;5113645;28;20075;-50
2022/10/16 01:59:10;;;;;;;11.68;3.92;;;12.20;99.90;;;;;;5113195;28;20126;-47
2022/10/16 02:01:42;;;;;;;6.95;3.92;;;12.10;99.90;;;;;;5114958;27;20078;-47
2022/10/16 02:04:24;;;;;;;7.18;4.30;;;12.20;99.90;;;;;;5112945;28;20039;-49
2022/10/16 02:06:51;;;;;;;10.00;5.10;;;12.10;99.90;;;;;;5113545;28;20035;-48
2022/10/16 02:09:18;;;;;;;12.25;5.35;;;12.20;99.90;;;;;;5119211;27;20085;-48
2022/10/16 02:11:45;;;;;;;8.70;5.18;;;12.20;99.90;;;;;;5113527;28;20044;-49
2022/10/16 02:14:12;;;;;;;12.20;6.13;;;12.30;99.90;;;;;;5111650;28;20040;-50
2022/10/16 02:16:45;;;;;;;12.98;5.05;;;12.30;99.90;;;;;;5106016;27;20479;-47
2022/10/16 02:19:18;;;;;;;12.10;5.85;;;12.30;99.90;;;;;;5112797;28;20409;-47
2022/10/16 02:21:59;;;;;;;14.32;5.75;;;12.20;99.90;;;;;;5112337;28;20067;-49
2022/10/16 02:25:17;;;;;;;11.02;6.28;;;12.30;99.90;;;;;;5116207;27;20074;-49
2022/10/16 02:28:01;;;;;;;9.63;6.05;;;12.30;99.90;;;;;;5087410;27;20123;-50
2022/10/16 02:30:48;;;;;;;8.55;5.57;;;12.20;99.90;;;;;;5113300;28;20074;-48
2022/10/16 02:33:16;;;;;;;11.70;6.72;;;12.20;99.90;;;;;;5112594;28;20460;-49
2022/10/16 02:35:46;;;;;;;14.45;6.20;;;12.20;99.90;;;;;;5118308;27;20063;-47
2022/10/16 02:38:14;;;;;;;11.27;5.15;;;12.30;99.90;;;;;;5116246;27;20075;-48
2022/10/16 02:40:42;;;;;;;11.15;5.70;;;12.20;99.90;;;;;;5112896;28;20040;-47
2022/10/16 02:43:10;;;;;;;8.60;5.60;;;12.30;99.90;;;;;;5112544;28;20039;-50
2022/10/16 02:45:37;;;;;;;11.05;5.35;;;12.20;99.90;;;;;;5123303;27;20096;-48
2022/10/16 02:48:04;;;;;;;13.02;5.43;;;12.20;99.90;;;;;;5113237;28;20085;-47
2022/10/16 02:50:31;;;;;;;;;;;12.20;99.90;;;;;;5113388;28;20043;-47
2022/10/16 02:52:58;;;;;;;10.85;4.18;;;12.10;99.90;;;;;;5112888;28;19955;-47
2022/10/16 02:55:24;;;;;;;11.43;5.18;;;12.10;99.90;;;;;;5115592;27;20740;-48
2022/10/16 02:57:52;;;;;;;11.57;4.85;;;12.00;99.90;;;;;;5112487;28;20052;-48
2022/10/16 03:00:19;;;;;;;10.55;5.30;;;11.90;99.90;;;;;;5119712;27;20491;-48
2022/10/16 03:02:46;;;;;;;11.57;5.55;;;12.00;99.90;;;;;;5121122;27;20031;-48
2022/10/16 03:05:14;;;;;;;8.30;5.50;;;12.00;99.90;;;;;;5139484;27;20097;-48
2022/10/16 03:07:40;;;;;;;8.90;5.57;;;12.00;99.90;;;;;;5127552;27;20036;-47
2022/10/16 03:10:07;;;;;;;10.93;5.07;;;12.00;99.90;;;;;;5126632;27;20461;-47
2022/10/16 03:12:34;;;;;;;10.77;5.03;;;12.00;99.90;;;;;;5124903;27;20038;-49
2022/10/16 03:15:01;;;;;;;6.70;4.13;;;11.80;99.90;;;;;;5131564;27;20046;-47
2022/10/16 03:17:28;;;;;;;12.52;5.18;;;11.80;99.90;;;;;;5131220;27;20092;-48
2022/10/16 03:19:55;;;;;;;7.80;4.93;;;11.90;99.90;;;;;;5130174;27;20043;-49
2022/10/16 03:22:22;;;;;;;12.60;6.03;;;11.80;99.90;;;;;;5112508;28;20051;-47
2022/10/16 03:24:48;;;;;;;8.38;5.85;;;11.90;99.90;;;;;;5112315;27;20562;-49
2022/10/16 03:27:15;;;;;;;19.90;6.47;;;11.90;99.90;;;;;;5112737;28;20075;-49
2022/10/16 03:29:42;;;;;;;10.13;5.90;;;11.90;99.90;;;;;;5092164;27;20075;-48
2022/10/16 03:32:08;;;;;;;12.63;5.90;;;11.90;99.90;;;;;;5112403;28;20044;-47
2022/10/16 03:34:35;;;;;;;14.13;6.45;;;11.90;99.90;;;;;;5110041;28;20074;-50
2022/10/16 03:37:02;;;;;;;10.70;6.03;;;11.90;99.90;;;;;;5112579;28;20122;-48
2022/10/16 03:39:29;;;;;;;9.15;6.20;;;11.80;99.90;;;;;;5113828;27;20074;-48
2022/10/16 03:41:55;;;;;;;10.23;5.72;;;11.80;99.90;;;;;;5112182;27;20059;-48
2022/10/16 03:44:22;;;;;;;12.25;6.15;;;11.80;99.90;;;;;;5110697;28;20039;-48
2022/10/16 03:46:49;;;;;;;10.18;5.47;;;11.80;99.90;;;;;;5112643;28;20404;-49
2022/10/16 03:49:15;;;;;;;11.30;5.43;;;11.80;99.90;;;;;;5110762;27;20043;-47
2022/10/16 03:51:42;;;;;;;12.48;6.18;;;11.80;99.90;;;;;;5111921;28;20044;-47
2022/10/16 03:54:10;;;;;;;9.45;5.00;;;11.70;99.90;;;;;;5110735;28;20066;-49
2022/10/16 03:56:37;;;;;;;8.35;5.32;;;11.70;99.90;;;;;;5112270;28;20040;-48
2022/10/16 03:59:04;;;;;;;9.50;6.07;;;11.70;99.90;;;;;;5111385;27;20518;-47
2022/10/16 04:01:30;;;;;;;9.38;5.20;;;11.70;99.90;;;;;;5111707;28;20097;-47
2022/10/16 04:03:57;;;;;;;11.25;4.65;;;11.60;99.90;;;;;;5110429;28;20063;-48
2022/10/16 04:06:24;;;;;;;11.32;5.82;;;11.60;99.90;;;;;;5114248;27;20104;-48
2022/10/16 04:08:50;;;;;;;8.63;5.72;;;11.50;99.90;;;;;;5116199;27;20063;-47
2022/10/16 04:11:17;;;;;;;7.97;4.55;;;11.60;99.90;;;;;;5111381;28;20046;-47
2022/10/16 04:13:44;;;;;;;11.10;4.72;;;11.40;99.90;;;;;;5109823;28;20054;-47
2022/10/16 04:16:11;;;;;;;9.52;5.57;;;11.40;99.90;;;;;;5111843;28;20047;-47
2022/10/16 04:18:37;;;;;;;8.23;5.07;;;11.30;99.90;;;;;;5110113;27;20070;-51
2022/10/16 04:21:05;;;;;;;8.10;5.38;;;11.30;99.90;;;;;;5111255;28;20090;-48
2022/10/16 04:23:33;;;;;;;9.52;5.20;;;11.30;99.90;;;;;;5110401;28;20071;-50
2022/10/16 04:26:00;;;;;;;13.98;5.95;;;11.30;99.90;;;;;;5115212;27;20435;-49
2022/10/16 04:28:27;;;;;;;;;;;11.30;99.90;;;;;;5111107;28;20039;-51
2022/10/16 04:30:54;;;;;;;10.75;5.13;;;11.30;99.90;;;;;;5111171;27;20308;-47
2022/10/16 04:33:21;;;;;;;12.52;6.95;;;11.30;99.90;;;;;;5110590;28;20043;-50
2022/10/16 04:35:48;;;;;;;10.63;6.35;;;11.30;99.90;;;;;;5091814;28;20464;-47
2022/10/16 04:38:14;;;;;;;12.07;5.95;;;11.20;99.90;;;;;;5110286;28;20043;-52
2022/10/16 04:40:42;;;;;;;8.48;5.05;;;11.20;99.90;;;;;;5103165;28;20059;-47
2022/10/16 04:43:09;;;;;;;11.52;6.40;;;11.20;99.90;;;;;;5110911;28;20108;-50
2022/10/16 04:45:36;;;;;;;11.98;6.88;;;11.10;99.90;;;;;;5127117;27;20078;-47
2022/10/16 04:48:02;;;;;;;15.85;8.40;;;11.10;99.90;;;;;;5131338;27;20170;-48
2022/10/16 04:50:29;;;;;;;7.88;4.93;;;11.10;99.90;;;;;;5137218;22;20089;-47
2022/10/16 04:53:06;;;;;;;10.80;5.10;;;11.10;99.90;;;;;;5063741;28;20120;-47
2022/10/16 04:55:33;;;;;;;13.15;5.20;;;11.10;99.90;;;;;;5070612;28;20119;-48
2022/10/16 04:58:00;;;;;;;7.20;4.70;;;11.10;99.90;;;;;;5066750;28;20120;-48
2022/10/16 05:00:26;;;;;;;9.70;4.38;;;11.10;99.90;;;;;;5064946;28;20119;-49
2022/10/16 05:02:53;;;;;;;7.25;4.63;;;11.20;99.90;;;;;;5074070;28;20040;-49
2022/10/16 05:05:20;;;;;;;8.13;5.00;;;11.10;99.90;;;;;;5072580;28;20493;-48
2022/10/16 05:07:49;;;;;;;9.77;4.65;;;11.10;99.90;;;;;;5073121;28;20056;-47
2022/10/16 05:10:16;;;;;;;8.43;4.78;;;11.10;99.90;;;;;;5079299;28;20515;-50
2022/10/16 05:12:43;;;;;;;9.25;4.78;;;11.10;99.90;;;;;;5074392;28;20064;-48
2022/10/16 05:15:10;;;;;;;9.02;4.65;;;11.10;99.90;;;;;;5073056;28;20461;-48
2022/10/16 05:17:37;;;;;;;15.48;4.90;;;11.10;99.90;;;;;;5078366;28;20044;-47
2022/10/16 05:20:10;;;;;;;9.77;4.78;;;11.00;99.90;;;;;;5074835;28;20102;-48
2022/10/16 05:22:37;;;;;;;;;;;11.00;99.90;;;;;;5074899;28;20392;-49
2022/10/16 05:25:04;;;;;;;5.43;3.67;;;11.00;99.90;;;;;;5072763;28;20019;-48
2022/10/16 05:27:31;;;;;;;7.13;3.78;;;11.00;99.90;;;;;;5074550;28;20072;-48
2022/10/16 05:29:58;;;;;;;10.05;4.38;;;11.10;99.90;;;;;;5070678;28;20532;-49
2022/10/16 05:32:25;;;;;;;18.48;6.93;;;11.00;99.90;;;;;;5073086;28;20049;-48
2022/10/16 05:34:51;;;;;;;9.05;4.80;;;11.00;99.90;;;;;;5070855;28;20169;-49
2022/10/16 05:37:18;;;;;;;5.90;4.25;;;10.90;99.90;;;;;;5072462;28;20110;-51
2022/10/16 05:39:45;;;;;;;12.05;4.45;;;11.00;99.90;;;;;;5071961;28;20136;-48
2022/10/16 05:42:12;;;;;;;6.53;3.42;;;11.00;99.90;;;;;;5073796;28;20079;-49
2022/10/16 05:44:39;;;;;;;6.25;3.72;;;11.00;99.90;;;;;;5071373;28;20044;-47
2022/10/16 05:47:05;;;;;;;9.77;3.90;;;11.00;99.90;;;;;;5073922;28;20076;-48
2022/10/16 05:49:32;;;;;;;7.20;3.60;;;11.10;99.90;;;;;;5072317;28;20068;-48
2022/10/16 05:52:04;;;;;;;4.97;3.38;;;11.00;99.90;;;;;;5081003;28;20067;-49
2022/10/16 05:54:31;;;;;;;6.57;4.25;;;11.10;99.90;;;;;;5066928;28;20043;-48
2022/10/16 05:56:58;;;;;;;8.07;3.83;;;11.30;99.90;;;;;;5091697;28;20109;-47
2022/10/16 05:59:24;;;;;;;7.55;4.50;;;11.10;99.90;;;;;;5074493;28;20319;-48
2022/10/16 06:01:53;;;;;;;10.05;4.68;;;11.10;99.90;;;;;;5085303;28;20110;-47
2022/10/16 06:04:19;;;;;;;8.55;4.28;;;11.10;99.90;;;;;;5082397;28;20497;-47
2022/10/16 06:06:46;;;;;;;16.83;5.00;;;11.10;99.90;;;;;;5093746;28;20071;-49
2022/10/16 06:09:13;;;;;;;10.02;5.10;;;11.20;99.90;;;;;;5089962;28;20048;-48
2022/10/16 06:11:40;;;;;;;8.10;4.22;;;11.30;99.90;;;;;;5073250;28;20137;-49
2022/10/16 06:14:08;;;;;;;7.75;4.20;;;11.30;99.90;;;;;;5072236;28;20098;-47
2022/10/16 06:16:37;;;;;;;10.07;4.45;;;11.30;99.90;;;;;;5073444;28;20040;-49
2022/10/16 06:19:06;;;;;;;11.43;6.25;;;11.40;99.90;;;;;;5071004;28;20485;-48
2022/10/16 06:21:33;;;;;;;8.00;4.85;;;11.40;99.90;;;;;;5064712;28;20041;-49
2022/10/16 06:24:00;;;;;;;6.53;4.13;;;11.40;99.90;;;;;;5072066;28;20116;-47
2022/10/16 06:26:28;;;;;;;12.85;4.65;;;11.40;99.90;;;;;;5073201;28;20053;-48
2022/10/16 06:28:56;;;;;;;9.68;4.28;;;11.50;99.90;;;;;;5070199;28;20067;-48
2022/10/16 06:31:27;;;;;;;8.13;4.53;;;11.50;99.90;;;;;;5073250;28;20040;-48
2022/10/16 06:33:55;;;;;;;10.68;4.65;;;11.40;99.90;;;;;;5071669;28;20052;-47
2022/10/16 06:36:22;;;;;;;11.50;4.30;;;11.40;99.90;;;;;;5070893;28;20037;-49
2022/10/16 06:38:49;;;;;;;11.25;4.57;;;11.50;99.90;;;;;;5072300;28;20048;-48
2022/10/16 06:41:18;;;;;;;10.65;4.90;;;11.50;99.90;;;;;;5071402;28;20072;-49
2022/10/16 06:43:46;;;;;;;7.57;5.05;;;11.50;99.90;;;;;;5071753;28;20041;-47
2022/10/16 06:46:14;;;;;;;;;;;11.60;99.90;;;;;;5070895;28;20085;-49
2022/10/16 06:48:41;;;;;;;10.88;5.15;;;11.50;99.90;;;;;;5072053;28;20363;-48
2022/10/16 06:51:14;;;;;;;12.57;4.90;;;11.60;99.90;;;;;;5071838;28;20070;-47
2022/10/16 06:53:43;;;;;;;8.15;4.45;;;11.70;99.90;;;;;;5070807;28;20522;-48
2022/10/16 06:56:30;;;;;;;10.77;5.03;;;11.80;99.90;;;;;;5077056;28;20036;-47
2022/10/16 06:58:57;;;;;;;7.38;3.92;;;11.80;99.90;;;;;;5072293;28;20793;-49
2022/10/16 07:01:25;;;;;;;8.45;4.40;;;11.90;99.90;;;;;;5070860;28;20060;-47
2022/10/16 07:03:52;;;;;;;8.23;4.30;;;12.00;99.90;;;;;;5070438;28;20132;-47
2022/10/16 07:06:21;;;;;;;8.63;4.35;;;12.10;99.90;;;;;;5070828;28;20492;-48
2022/10/16 07:08:48;;;;;;;9.18;4.47;;;12.10;99.90;;;;;;5072207;28;20071;-49
2022/10/16 07:11:16;;;;;;;;;;;12.30;99.90;;;;;;5070587;28;20074;-48
2022/10/16 07:13:44;;;;;;;9.07;3.83;;;12.50;99.90;;;;;;5071173;28;19951;-49
2022/10/16 07:16:20;;;;;;;4.85;3.55;;;12.60;99.90;;;;;;5070812;28;20511;-49
2022/10/16 07:18:49;;;;;;;10.50;4.07;;;12.60;99.90;;;;;;5070626;28;20040;-47
2022/10/16 07:21:20;;;;;;;6.10;3.85;;;12.60;99.90;;;;;;5070973;28;20040;-47
2022/10/16 07:23:51;;;;;;;8.30;3.47;;;12.60;99.90;;;;;;5071488;28;20115;-47
2022/10/16 07:26:18;;;;;;;6.15;3.60;;;12.50;99.90;;;;;;5071341;28;20490;-50
2022/10/16 07:28:45;;;;;;;7.65;3.88;;;12.40;99.90;;;;;;5056008;28;20076;-50
2022/10/16 07:31:14;;;;;;;5.97;3.95;;;12.50;99.90;;;;;;5070644;28;20048;-48
2022/10/16 07:33:44;;;;;;;13.00;3.78;;;12.60;99.90;;;;;;5070264;28;20041;-49
2022/10/16 07:36:12;;;;;;;7.82;3.67;;;12.70;99.90;;;;;;5069912;28;20467;-49
2022/10/16 07:38:42;;;;;;;6.57;4.00;;;12.70;99.90;;;;;;5076930;28;20049;-47
2022/10/16 07:41:12;;;;;;;8.02;3.22;;;12.80;99.90;;;;;;5086237;28;20086;-48
2022/10/16 07:43:39;;;;;;;8.57;3.70;;;13.00;99.90;;;;;;5088395;28;20068;-49
2022/10/16 07:46:06;;;;;;;6.03;3.53;;;13.10;99.90;;;;;;5068032;28;20040;-48
2022/10/16 07:48:34;;;;;;;7.03;3.28;;;13.20;99.90;;;;;;5071131;28;20151;-48
2022/10/16 07:51:03;;;;;;;7.43;3.22;;;13.20;99.90;;;;;;5070574;28;20102;-52
2022/10/16 07:53:30;;;;;;;9.07;3.63;;;13.30;99.90;;;;;;5072333;28;20654;-47
2022/10/16 07:55:59;;;;;;;5.50;3.70;;;13.40;99.90;;;;;;5075325;28;20052;-50
2022/10/16 07:58:27;;;;;;;11.13;4.50;;;13.50;99.90;;;;;;5069028;28;20048;-49
2022/10/16 08:00:55;;;;;;;10.75;4.60;;;13.60;99.90;;;;;;5069876;28;20037;-47
2022/10/16 08:03:22;;;;;;;5.65;4.05;;;13.70;99.90;;;;;;5069676;28;20467;-48
2022/10/16 08:05:49;;;;;;;5.55;3.10;;;13.90;99.90;;;;;;5070610;28;20090;-49
2022/10/16 08:08:17;;;;;;;6.22;3.35;;;14.20;99.90;;;;;;5069913;28;20548;-49
2022/10/16 08:10:45;;;;;;;6.25;3.50;;;14.40;99.90;;;;;;5070367;28;20539;-49
2022/10/16 08:13:14;;;;;;;4.93;3.45;;;14.60;99.90;;;;;;5069569;28;20097;-48
2022/10/16 08:15:42;;;;;;;4.70;2.70;;;14.70;99.90;;;;;;5075191;28;20055;-47
2022/10/16 08:18:11;;;;;;;8.73;3.28;;;14.60;99.90;;;;;;5068638;28;20041;-48
2022/10/16 08:20:38;;;;;;;5.80;3.40;;;14.70;99.90;;;;;;5069825;28;20071;-51
2022/10/16 08:23:06;;;;;;;3.67;2.67;;;14.70;99.90;;;;;;5069935;28;20041;-48
2022/10/16 08:25:37;;;;;;;6.97;3.08;;;14.80;99.90;;;;;;5075297;28;20040;-51
2022/10/16 08:28:08;;;;;;;7.90;3.10;;;14.70;99.90;;;;;;5051434;28;20505;-48
2022/10/16 08:30:35;;;;;;;3.20;2.40;;;14.90;99.90;;;;;;5071078;28;20505;-48
2022/10/16 08:33:02;;;;;;;;;;;14.90;99.90;;;;;;5074083;28;20480;-50
2022/10/16 08:35:29;;;;;;;4.05;2.63;;;14.90;99.90;;;;;;5070236;28;19964;-48
2022/10/16 08:37:56;;;;;;;6.97;3.13;;;15.00;99.90;;;;;;5069984;28;20068;-48
2022/10/16 08:40:31;;;;;;;6.00;3.10;;;15.00;99.90;;;;;;5078096;28;20075;-49
2022/10/16 08:43:07;;;;;;;4.22;2.50;;;15.00;99.90;;;;;;5072474;28;20485;-49
2022/10/16 08:46:01;;;;;;;4.47;2.88;;;15.10;99.90;;;;;;5069396;28;20131;-52
2022/10/16 08:48:51;;;;;;;5.82;2.60;;;15.20;99.90;;;;;;5070023;28;20483;-48
2022/10/16 08:51:20;;;;;;;7.55;2.42;;;15.40;99.90;;;;;;5049554;28;20079;-48
2022/10/16 08:53:57;;;;;;;9.27;2.65;;;15.50;99.90;;;;;;5069365;28;20052;-48
2022/10/16 08:56:25;;;;;;;4.15;2.63;;;15.70;99.90;;;;;;5073718;28;20091;-49
2022/10/16 08:58:53;;;;;;;6.43;2.50;;;15.80;99.90;;;;;;5070558;28;20041;-49
2022/10/16 09:01:40;;;;;;;4.43;2.80;;;15.90;99.90;;;;;;5068052;28;20068;-48
2022/10/16 09:04:46;;;;;;;7.13;2.88;;;16.00;99.90;;;;;;5068650;28;20132;-48
2022/10/16 09:07:38;;;;;;;5.72;2.85;;;16.10;99.90;;;;;;5068023;28;20098;-52
2022/10/16 09:10:27;;;;;;;4.97;2.70;;;16.20;99.90;;;;;;5068694;28;20071;-52
2022/10/16 09:13:17;;;;;;;3.58;2.67;;;16.20;99.90;;;;;;5068540;28;20128;-49
2022/10/16 09:15:55;;;;;;;5.18;2.60;;;16.30;99.90;;;;;;5066615;28;20493;-49
2022/10/16 09:18:29;;;;;;;4.70;3.05;;;16.50;99.90;;;;;;5071226;28;20074;-48
2022/10/16 09:21:11;;;;;;;3.90;2.55;;;16.60;99.90;;;;;;5068732;28;20044;-50
2022/10/16 09:23:38;;;;;;;4.88;2.47;;;16.70;99.90;;;;;;5068372;28;20120;-49
2022/10/16 09:26:11;;;;;;;4.78;2.17;;;16.80;99.90;;;;;;5068899;28;20064;-50
2022/10/16 09:28:38;;;;;;;4.88;2.42;;;16.90;99.90;;;;;;5076840;28;20041;-48
2022/10/16 09:31:04;;;;;;;3.55;2.50;;;16.90;99.90;;;;;;5054975;28;20500;-48
2022/10/16 09:33:40;;;;;;;11.10;2.53;;;17.00;99.90;;;;;;5072981;28;20074;-52
2022/10/16 09:36:10;;;;;;;6.03;3.22;;;17.20;99.90;;;;;;5072384;28;20090;-49
2022/10/16 09:38:37;;;;;;;5.72;3.00;;;17.40;99.90;;;;;;5072406;28;20065;-49
2022/10/16 09:41:19;;;;;;;4.40;2.92;;;17.60;99.90;;;;;;5072644;28;20127;-49
2022/10/16 09:43:58;;;;;;;4.93;3.10;;;17.80;99.90;;;;;;5073241;28;20036;-47
2022/10/16 09:46:31;;;;;;;6.20;3.20;;;17.90;99.90;;;;;;5070912;28;20127;-48
2022/10/16 09:49:01;;;;;;;5.75;3.13;;;17.90;99.90;;;;;;5072535;28;20677;-54
2022/10/16 09:51:37;;;;;;;4.30;3.10;;;17.90;99.90;;;;;;5073408;28;20091;-48
2022/10/16 09:54:09;;;;;;;4.88;2.90;;;18.00;99.90;;;;;;5072105;28;20082;-48
2022/10/16 09:56:39;;;;;;;3.97;2.70;;;18.10;99.90;;;;;;5078026;28;20048;-48
2022/10/16 09:59:14;;;;;;;9.65;4.82;;;18.30;99.90;;;;;;5071941;28;20044;-46
2022/10/16 10:01:52;;;;;;;3.92;2.25;;;18.40;99.90;;;;;;5073130;28;20277;-50
2022/10/16 10:04:19;;;;;;;4.65;3.03;;;18.40;99.90;;;;;;5070385;28;20072;-50
2022/10/16 10:07:07;;;;;;;6.68;2.83;;;18.50;99.90;;;;;;5072826;28;20524;-49
2022/10/16 10:09:38;;;;;;;8.05;3.15;;;18.40;99.90;;;;;;5074869;28;20039;-49
2022/10/16 10:12:16;;;;;;;3.75;2.65;;;18.30;99.90;;;;;;5071567;28;20083;-48
2022/10/16 10:14:52;;;;;;;5.57;2.90;;;18.40;99.90;;;;;;5076811;28;20055;-50
2022/10/16 10:17:20;;;;;;;7.90;2.90;;;18.50;99.90;;;;;;5084630;28;20772;-50
2022/10/16 10:19:49;;;;;;;4.88;2.50;;;18.70;99.90;;;;;;5087649;28;20090;-48
2022/10/16 10:22:44;;;;;;;6.13;2.97;;;18.70;99.90;;;;;;5072494;28;20075;-48
2022/10/16 10:25:13;;;;;;;3.83;3.00;;;18.80;99.90;;;;;;5072840;28;20037;-52
2022/10/16 10:27:46;;;;;;;3.58;2.42;;;18.90;99.90;;;;;;5071215;28;20052;-48
2022/10/16 10:30:26;;;;;;;4.68;2.80;;;18.70;99.90;;;;;;5073100;28;20539;-48
2022/10/16 10:33:14;;;;;;;6.20;2.95;;;18.80;99.90;;;;;;5071199;28;20079;-49
2022/10/16 10:35:48;;;;;;;3.88;2.47;;;19.00;99.90;;;;;;5076853;28;20048;-49
2022/10/16 10:38:15;;;;;;;4.03;2.63;;;19.10;99.90;;;;;;5069557;28;20072;-49
2022/10/16 10:40:54;;;;;;;10.80;3.00;;;19.10;99.90;;;;;;5072480;28;20481;-49
2022/10/16 10:43:20;;;;;;;4.10;2.55;;;19.20;99.90;;;;;;5069325;28;20060;-50
2022/10/16 10:45:52;;;;;;;4.53;2.83;;;19.20;99.90;;;;;;5070389;28;20640;-48
2022/10/16 10:48:42;;;;;;;4.80;2.95;;;19.20;99.90;;;;;;5069315;28;20102;-48
2022/10/16 10:51:38;;;;;;;4.93;3.13;;;19.20;99.90;;;;;;5073250;28;20094;-49
2022/10/16 10:54:16;;;;;;;4.25;3.17;;;19.20;99.90;;;;;;5023075;28;20041;-49
2022/10/16 10:57:09;;;;;;;4.15;3.10;;;19.30;99.90;;;;;;5069200;28;20028;-48
2022/10/16 10:59:35;;;;;;;8.18;3.70;;;19.40;99.90;;;;;;5070322;28;20566;-48
2022/10/16 11:02:14;;;;;;;6.60;3.38;;;19.70;99.90;;;;;;5071994;28;20547;-49
2022/10/16 11:05:09;;;;;;;7.30;3.35;;;19.80;99.90;;;;;;5069895;28;20098;-51
2022/10/16 11:07:58;;;;;;;12.00;6.28;;;19.80;99.90;;;;;;5070232;28;20071;-50
2022/10/16 11:10:36;;;;;;;6.97;3.92;;;20.00;99.90;;;;;;5069338;28;20040;-49
2022/10/16 11:13:14;;;;;;;;;;;19.90;99.90;;;;;;5071694;28;20044;-51
2022/10/16 11:15:44;;;;;;;5.55;3.60;;;20.00;99.90;;;;;;5069009;28;19981;-49
2022/10/16 11:18:32;;;;;;;5.47;3.22;;;20.10;99.90;;;;;;5069491;28;20191;-49
2022/10/16 11:21:07;;;;;;;4.97;2.77;;;20.10;99.90;;;;;;5069165;28;20056;-49
2022/10/16 11:23:38;;;;;;;4.60;3.20;;;20.10;99.90;;;;;;5073145;28;20059;-50
2022/10/16 11:26:14;;;;;;;4.38;3.28;;;20.10;99.90;;;;;;5070223;28;20037;-48
2022/10/16 11:28:49;;;;;;;7.20;3.10;;;20.10;99.90;;;;;;5069794;28;20106;-50
2022/10/16 11:31:29;;;;;;;9.70;4.03;;;20.00;99.90;;;;;;5070369;28;20044;-50
2022/10/16 11:34:28;;;;;;;4.93;3.50;;;19.90;99.90;;;;;;5052583;28;20113;-49
2022/10/16 11:37:14;;;;;;;6.90;3.83;;;20.00;99.90;;;;;;5074546;28;20032;-49
2022/10/16 11:39:43;;;;;;;5.47;3.28;;;20.00;99.90;;;;;;5051277;28;20121;-49
2022/10/16 11:42:22;;;;;;;4.68;3.35;;;20.10;99.90;;;;;;5071164;28;20460;-49
2022/10/16 11:45:07;;;;;;;5.68;3.63;;;20.10;99.90;;;;;;5068657;28;20090;-49
2022/10/16 11:47:35;;;;;;;6.38;3.65;;;20.20;99.90;;;;;;5070710;28;20386;-49
2022/10/16 11:50:34;;;;;;;8.18;3.22;;;20.20;99.90;;;;;;5069658;28;20450;-51
2022/10/16 11:53:04;;;;;;;3.92;3.25;;;20.30;99.90;;;;;;5069824;28;20455;-50
2022/10/16 11:55:36;;;;;;;5.40;3.50;;;20.50;99.90;;;;;;5065396;28;20033;-49
2022/10/16 11:58:22;;;;;;;4.80;3.45;;;20.60;99.90;;;;;;5071098;28;20132;-52
2022/10/16 12:01:16;;;;;;;6.40;3.10;;;20.80;99.90;;;;;;5089320;28;20502;-51
2022/10/16 12:03:58;;;;;;;5.40;3.20;;;20.80;99.90;;;;;;5080932;28;20481;-49
2022/10/16 12:06:44;;;;;;;4.70;3.38;;;20.90;99.90;;;;;;5070981;28;20436;-50
2022/10/16 12:09:20;;;;;;;4.05;3.00;;;20.90;99.90;;;;;;5058410;28;20049;-48
2022/10/16 12:11:47;;;;;;;6.55;3.60;;;21.10;99.90;;;;;;5075331;28;20049;-49
2022/10/16 12:14:14;;;;;;;5.07;3.42;;;21.20;99.90;;;;;;5069816;28;20409;-48
2022/10/16 12:16:58;;;;;;;5.07;3.28;;;21.30;99.90;;;;;;5070354;28;20061;-48
2022/10/16 12:19:27;;;;;;;4.57;3.28;;;21.30;99.90;;;;;;5069334;28;20040;-49
2022/10/16 12:21:59;;;;;;;5.18;3.40;;;21.30;99.90;;;;;;5070084;28;20109;-49
2022/10/16 12:24:41;;;;;;;6.07;2.95;;;21.30;99.90;;;;;;5069578;28;20048;-49
2022/10/16 12:27:32;;;;;;;6.00;3.55;;;21.30;99.90;;;;;;5069568;28;20060;-49
2022/10/16 12:30:05;;;;;;;5.50;3.30;;;21.30;99.90;;;;;;5069197;28;20098;-50
2022/10/16 12:32:35;;;;;;;4.63;3.42;;;21.30;99.90;;;;;;5109866;22;20047;-53
2022/10/16 12:35:24;;;;;;;4.25;3.08;;;21.30;99.90;;;;;;5109716;28;20039;-53
2022/10/16 12:37:52;;;;;;;4.03;3.38;;;21.30;99.90;;;;;;5122836;28;20058;-53
2022/10/16 12:40:32;;;;;;;6.80;3.28;;;21.40;99.90;;;;;;5111730;28;20077;-53
2022/10/16 12:42:59;;;;;;;8.75;3.15;;;21.40;99.90;;;;;;5103729;28;20032;-51
2022/10/16 12:45:25;;;;;;;;;;;21.50;99.90;;;;;;5103000;28;20732;-53
2022/10/16 12:47:54;;;;;;;9.25;3.80;;;21.40;99.90;;;;;;5110443;28;19924;-51
2022/10/16 12:50:25;;;;;;;4.47;3.30;;;21.50;99.90;;;;;;5111021;28;20079;-51
2022/10/16 12:52:52;;;;;;;5.28;3.53;;;21.60;99.90;;;;;;5110601;28;20070;-53
2022/10/16 12:55:21;;;;;;;6.97;3.15;;;21.60;99.90;;;;;;5103214;28;20059;-51
2022/10/16 12:58:24;;;;;;;5.65;3.22;;;21.50;99.90;;;;;;5110196;28;20097;-52
2022/10/16 13:01:04;;;;;;;4.03;3.08;;;21.50;99.90;;;;;;5109625;28;20066;-52
2022/10/16 13:03:55;;;;;;;6.30;4.05;;;21.60;99.90;;;;;;5108729;28;20429;-51
2022/10/16 13:06:30;;;;;;;4.55;3.33;;;21.60;99.90;;;;;;5113933;28;20065;-53
2022/10/16 13:09:18;;;;;;;7.35;4.03;;;21.60;99.90;;;;;;5114621;28;20114;-50
2022/10/16 13:11:55;;;;;;;4.82;3.47;;;21.60;99.90;;;;;;5111854;28;20043;-50